Terminal Aerodrome Forecast
Issued by NWS Wilmington, NC

Home | Current Version | Previous Version | Text Only | Print | Product List | Glossary On
Versions: 1 2 3 4 5 6 7 8 9 10 11 12 13 14 15 16
000
FTUS42 KILM 270010 CCA
TAFLBT
TAF COR
KLBT 270010Z 2700/2724 15006KT P6SM VCSH SCT045 BKN060
     FM270500 16003KT P6SM SCT060 BKN100
      TEMPO 2709/2713 00000KT 2SM BR
     FM271400 20009KT P6SM SCT040 BKN060=

USA.gov is the U.S. government's official web portal to all federal, state and local government web resources and services.